SBYC BurgeeSandy Bay Yacht Club
Weather Center


Nearby METAR Reports

Nearby METAR Reports

 

KBVY - Beverly, Massachusetts, USA
Distance from station: WSW 16mi, 26km
Updated: Sat, 25-Jan-2020 8:53pm EST
Rain, Mist, Overcast
Rain, Mist, Overcast
 Wind from ESE
Wind: ESE 18 mph , 30 km/h, Gust: 26 mph , 43 km/h
Temperature: 46°F , 8°C
Wind Chill: 39°F , 4°C
Dew Point: 43°F , 6°C
Humidity: 87%
Barometer: 29.79 inHg , 1008.8 hPa
Summary: Rain, Mist
Clouds: Overcast
Visibility: 2 miles , 3 km
Cloud details: Overcast 400 ft
2020/01/26 01:53 KBVY 260153Z AUTO 12016G23KT 2SM RA BR OVC004 08/06 A2979 RMK AO2 PK WND 11034/0111 SLP084 P0018 T00780061 $
KLWM - Lawrence, Massachusetts, USA
Distance from station: W 27mi, 43km
Updated: Sat, 25-Jan-2020 8:54pm EST
Rain, Mist, Overcast
Rain, Mist, Overcast
 Wind from E
Wind: E 8 mph , 13 km/h
Temperature: 43°F , 6°C
Wind Chill: 38°F , 3°C
Dew Point: 43°F , 6°C
Humidity: 100%
Barometer: 29.81 inHg , 1009.5 hPa
Summary: Rain, Mist
Clouds: Overcast
Visibility: 3 miles , 5 km
Cloud details: Overcast 700 ft
2020/01/26 01:54 KLWM 260154Z 08007KT 3SM RA BR OVC007 06/06 A2981 RMK AO2 CIG 005V009 SLP095 P0024 T00610056 $
 
KBOS - Boston, Massachusetts, USA
Distance from station: SW 29mi, 46km
Updated: Sat, 25-Jan-2020 8:54pm EST
Light rain, Mist, Overcast
Light rain, Mist, Overcast
 Wind from ESE
Wind: ESE 20 mph , 31 km/h
Temperature: 46°F , 8°C
Wind Chill: 38°F , 3°C
Dew Point: 43°F , 6°C
Humidity: 87%
Barometer: 29.78 inHg , 1008.5 hPa
Summary: Light rain, Mist
Clouds: Overcast
Visibility: 2 miles , 3 km
Cloud details: Overcast 300 ft
2020/01/26 01:54 KBOS 260154Z 11017KT 2SM -RA BR OVC003 08/06 A2978 RMK AO2 PK WND 11033/0136 SLP083 P0012 T00780056
KPSM - Portsmouth/Pease, New Hampshire, USA
Distance from station: NNW 30mi, 48km
Updated: Sat, 25-Jan-2020 8:39pm EST
Light rain, Mist, Overcast
Light rain, Mist, Overcast
 Wind from ENE
Wind: ENE 22 mph , 35 km/h, Gust: 28 mph , 44 km/h
Temperature: 43°F , 6°C
Wind Chill: 34°F , 1°C
Dew Point: 41°F , 5°C
Humidity: 93%
Barometer: 29.82 inHg , 1009.8 hPa
Summary: Light rain, Mist
Clouds: Overcast
Visibility: 2 miles , 3 km
Cloud details: Overcast 600 ft
2020/01/26 01:39 KPSM 260139Z 06019G24KT 2SM -RA BR OVC006 06/05 A2982 RMK A02A PRESFR SLP101
 
KMHT - Manchester, New Hampshire, USA
Distance from station: WNW 46mi, 73km
Updated: Sat, 25-Jan-2020 8:53pm EST
Rain, Mist, Overcast
Rain, Mist, Overcast
 Wind from ENE
Wind: ENE 6 mph , 9 km/h
Temperature: 43°F , 6°C
Wind Chill: 39°F , 4°C
Dew Point: 39°F , 4°C
Humidity: 87%
Barometer: 29.81 inHg , 1009.5 hPa
Summary: Rain, Mist
Clouds: Overcast
Visibility: 3 miles , 5 km
Cloud details: Overcast 800 ft
2020/01/26 01:53 KMHT 260153Z 07005KT 3SM RA BR OVC008 06/04 A2981 RMK AO2 SLP109 P0023 T00560044
KPVC - Provincetown, Massachusetts, USA
Distance from station: SSE 46mi, 73km
Updated: Sat, 25-Jan-2020 8:56pm EST
Rain, Mist, Overcast
Rain, Mist, Overcast
 Wind from SE
Wind: SE 15 mph , 24 km/h, Gust: 23 mph , 37 km/h
Temperature: 48°F , 9°C
Wind Chill: 42°F , 6°C
Dew Point: 46°F , 8°C
Humidity: 94%
Barometer: 29.81 inHg , 1009.5 hPa
Summary: Rain, Mist
Clouds: Overcast
Visibility: 4 miles , 6 km
Cloud details: Overcast 500 ft
2020/01/26 01:56 KPVC 260156Z AUTO 14013G20KT 4SM RA BR OVC005 09/08 A2981 RMK AO2 PK WND 12030/0129 RAB47 SLP095 T00890083 PNO $
 
KDAW - Rochester, New Hampshire, USA
Distance from station: NNW 46mi, 74km
Updated: Sat, 25-Jan-2020 8:51pm EST
Heavy rain, Mist, Overcast
Heavy rain, Mist, Overcast
 Wind from ENE
Wind: ENE 15 mph , 24 km/h, Gust: 26 mph , 43 km/h
Temperature: 39°F , 4°C
Wind Chill: 31°F , -1°C
Dew Point: 37°F , 3°C
Humidity: 93%
Barometer: 29.84 inHg , 1010.5 hPa
Summary: Heavy rain, Mist
Clouds: Overcast
Visibility: 1 3/4 miles , 2.8 km
Cloud details: Overcast 600 ft
2020/01/26 01:51 KDAW 260151Z AUTO 06013G23KT 030V090 1 3/4SM +RA BR OVC006 04/03 A2984 RMK AO2 PRESFR SLP105 P0017 T00440028
KASH - Nashua/Boire Fld, New Hampshire, USA
Distance from station: W 47mi, 75km
Updated: Sat, 25-Jan-2020 8:56pm EST
Light rain, Mist, Overcast
Light rain, Mist, Overcast
 Wind from calm
Wind: Calm
Temperature: 41°F , 5°C
Dew Point: 41°F , 5°C
Humidity: 100%
Barometer: 29.82 inHg , 1009.8 hPa
Summary: Light rain, Mist
Clouds: Overcast
Visibility: 1 3/4 miles , 2.8 km
Cloud details: Overcast 700 ft
2020/01/26 01:56 KASH 260156Z 00000KT 1 3/4SM -RA BR OVC007 05/05 A2982 RMK AO2 SLP104 T00500050 PNO $
 
KSFM - Sanford Muni, Maine, USA
Distance from station: N 50mi, 81km
Updated: Sat, 25-Jan-2020 8:56pm EST
Light rain, Mist, Overcast
Light rain, Mist, Overcast
 Wind from E
Wind: E 21 mph , 33 km/h, Gust: 28 mph , 44 km/h
Temperature: 39°F , 4°C
Wind Chill: 29°F , -2°C
Dew Point: 37°F , 3°C
Humidity: 93%
Barometer: 29.88 inHg , 1011.9 hPa
Summary: Light rain, Mist
Clouds: Overcast
Visibility: 2 miles , 3 km
Cloud details: Overcast 300 ft
2020/01/26 01:56 KSFM 260156Z AUTO 08018G24KT 2SM -RA BR OVC003 04/03 A2988 RMK AO2 SLP123 T00390033 PNO $

Metar display script from Saratoga-Weather.org

 



home

Copyright © Sandy Bay Yacht Club. All rights reserved.